Time;durP1;ratioP1;P1;durP2;ratioP2;P2;SDS_P1;SDS_P2;PMS_P1;PMS_P2;Temp;Humidity;BMP_temperature;BMP_pressure;BME280_temperature;BME280_humidity;BME280_pressure;Samples;Min_cycle;Max_cycle;Signal;HPM_P1;HPM_P2
2023/10/17 00:01:03;;;;;;;0.85;0.85;;;;;;;8.11;49.90;100135.94;4395978;32;33627;-68
2023/10/17 00:03:32;;;;;;;0.95;0.95;;;;;;;8.01;50.19;100124.09;4372939;32;33781;-67
2023/10/17 00:06:00;;;;;;;1.65;1.02;;;;;;;8.19;49.47;100129.34;4386037;32;34733;-68
2023/10/17 00:08:32;;;;;;;1.10;1.00;;;;;;;8.32;48.92;100128.50;4404045;32;34524;-68
2023/10/17 00:11:16;;;;;;;1.33;1.23;;;;;;;8.21;49.14;100128.25;4397448;32;33169;-68
2023/10/17 00:14:07;;;;;;;5.45;2.83;;;;;;;8.15;49.45;100121.50;4381708;32;33204;-68
2023/10/17 00:16:37;;;;;;;2.25;1.55;;;;;;;8.13;49.53;100125.22;4391714;32;33849;-67
2023/10/17 00:19:05;;;;;;;0.85;0.85;;;;;;;8.20;49.40;100118.56;4398360;32;33796;-68
2023/10/17 00:21:33;;;;;;;2.83;2.03;;;;;;;8.30;48.90;100118.87;4396595;32;33816;-67
2023/10/17 00:24:04;;;;;;;1.62;1.52;;;;;;;8.37;48.65;100123.72;4392525;32;32987;-67
2023/10/17 00:26:32;;;;;;;0.70;0.70;;;;;;;8.44;48.70;100123.41;4393000;32;33000;-68
2023/10/17 00:29:04;;;;;;;3.10;1.30;;;;;;;8.37;49.07;100110.41;4396395;32;35279;-68
2023/10/17 00:31:32;;;;;;;1.02;0.85;;;;;;;8.26;49.47;100112.00;4388330;32;34242;-68
2023/10/17 00:34:01;;;;;;;0.65;0.65;;;;;;;8.14;50.02;100119.78;4390642;32;33478;-68
2023/10/17 00:36:28;;;;;;;0.60;0.60;;;;;;;8.26;49.88;100118.19;4386344;32;33537;-67
2023/10/17 00:39:08;;;;;;;0.95;0.90;;;;;;;8.37;49.58;100120.22;4383006;32;35164;-67
2023/10/17 00:41:50;;;;;;;1.67;1.35;;;;;;;8.22;50.09;100108.69;4396038;32;33638;-67
2023/10/17 00:44:24;;;;;;;1.60;1.23;;;;;;;8.32;49.60;100106.31;4382539;32;33032;-67
2023/10/17 00:46:52;;;;;;;0.50;0.50;;;;;;;8.36;49.31;100106.03;4388406;32;34104;-67
2023/10/17 00:49:21;;;;;;;0.60;0.60;;;;;;;8.15;50.04;100113.50;4389658;32;32779;-67
2023/10/17 00:51:49;;;;;;;0.65;0.65;;;;;;;8.16;50.06;100112.56;4368959;32;34384;-69
2023/10/17 00:54:18;;;;;;;1.37;0.93;;;;;;;7.82;50.79;100102.13;4386368;32;33217;-69
2023/10/17 00:56:46;;;;;;;1.30;0.75;;;;;;;8.00;50.42;100102.88;4395122;32;33511;-69
2023/10/17 00:59:15;;;;;;;1.48;1.37;;;;;;;7.83;50.83;100095.84;4385982;32;35297;-69
2023/10/17 01:01:43;;;;;;;0.90;0.75;;;;;;;7.89;51.06;100098.16;4390632;32;33621;-68
2023/10/17 01:04:14;;;;;;;0.60;0.60;;;;;;;7.76;51.03;100086.50;4403667;32;33204;-68
2023/10/17 01:06:41;;;;;;;0.50;0.50;;;;;;;7.91;50.56;100083.81;4406000;32;33582;-68
2023/10/17 01:09:18;;;;;;;0.50;0.50;;;;;;;8.17;49.53;100087.59;4403189;32;33588;-69
2023/10/17 01:11:46;;;;;;;2.80;1.77;;;;;;;7.96;50.10;100093.31;4405000;32;33462;-69
2023/10/17 01:14:20;;;;;;;0.70;0.70;;;;;;;8.27;49.37;100087.06;4402226;32;33316;-69
2023/10/17 01:16:52;;;;;;;0.62;0.62;;;;;;;8.29;49.45;100085.16;4405600;32;34078;-69
2023/10/17 01:19:21;;;;;;;0.90;0.90;;;;;;;7.96;50.31;100080.00;4406059;32;33654;-67
2023/10/17 01:21:48;;;;;;;0.70;0.70;;;;;;;8.03;50.20;100087.56;4403594;32;34159;-68
2023/10/17 01:24:16;;;;;;;0.57;0.57;;;;;;;8.18;49.79;100083.12;4406149;32;33520;-67
2023/10/17 01:26:45;;;;;;;1.08;0.95;;;;;;;8.16;50.01;100085.88;4404335;32;33357;-68
2023/10/17 01:29:12;;;;;;;3.83;1.25;;;;;;;8.34;49.68;100083.91;4406473;32;34140;-68
2023/10/17 01:31:43;;;;;;;1.85;1.35;;;;;;;8.37;49.74;100081.06;4405977;32;33813;-68
2023/10/17 01:34:12;;;;;;;1.00;0.90;;;;;;;8.42;49.94;100077.31;4409597;32;34135;-68
2023/10/17 01:36:42;;;;;;;0.70;0.70;;;;;;;8.50;49.35;100080.34;4406053;32;34743;-67
2023/10/17 01:39:10;;;;;;;1.10;0.77;;;;;;;8.51;49.33;100080.28;4368429;32;34977;-68
2023/10/17 01:41:38;;;;;;;0.70;0.70;;;;;;;8.66;48.87;100081.13;4369466;32;34447;-68
2023/10/17 01:44:08;;;;;;;0.90;0.77;;;;;;;8.69;48.60;100088.94;4362614;32;34327;-67
2023/10/17 01:46:38;;;;;;;0.57;0.57;;;;;;;8.67;48.58;100079.31;4369326;32;35042;-68
2023/10/17 01:49:12;;;;;;;0.65;0.62;;;;;;;8.61;48.43;100085.91;4375479;32;33996;-67
2023/10/17 01:51:45;;;;;;;0.70;0.70;;;;;;;8.75;47.92;100083.25;4367362;32;35215;-68
2023/10/17 01:54:14;;;;;;;1.05;0.95;;;;;;;8.60;48.31;100082.38;4372214;32;33978;-67
2023/10/17 01:56:47;;;;;;;1.12;1.02;;;;;;;8.77;47.91;100078.69;4368024;32;34609;-68
2023/10/17 01:59:25;;;;;;;1.15;0.75;;;;;;;8.82;47.88;100083.72;4363840;32;33647;-67
2023/10/17 02:01:56;;;;;;;1.85;1.02;;;;;;;8.81;48.11;100092.69;4367526;32;33760;-68
2023/10/17 02:04:24;;;;;;;1.50;0.93;;;;;;;8.68;48.12;100087.25;4367329;32;34077;-67
2023/10/17 02:06:52;;;;;;;1.55;1.45;;;;;;;8.65;48.27;100092.78;4366295;32;33659;-67
2023/10/17 02:12:00;;;;;;;0.62;0.62;;;;;;;8.84;47.70;100090.69;4361764;32;34079;-67
2023/10/17 02:14:28;;;;;;;4.37;1.12;;;;;;;8.86;47.56;100090.59;4373471;32;33725;-67
2023/10/17 02:16:56;;;;;;;0.65;0.65;;;;;;;8.95;47.35;100097.16;4388131;32;34885;-67
2023/10/17 02:19:25;;;;;;;0.65;0.65;;;;;;;8.97;47.19;100096.12;4403187;32;35090;-67
2023/10/17 02:21:56;;;;;;;2.25;1.37;;;;;;;8.88;47.21;100086.00;4402759;32;33815;-68
2023/10/17 02:24:24;;;;;;;0.75;0.70;;;;;;;8.89;47.24;100084.19;4403220;32;34113;-68
2023/10/17 02:27:00;;;;;;;1.92;1.17;;;;;;;8.88;47.42;100096.69;4403751;32;34904;-69
2023/10/17 02:29:29;;;;;;;0.50;0.50;;;;;;;8.84;47.67;100098.69;4404039;32;33728;-69
2023/10/17 02:31:58;;;;;;;1.02;0.80;;;;;;;8.83;47.76;100101.47;4402002;32;33832;-69
2023/10/17 02:34:29;;;;;;;1.00;0.60;;;;;;;8.70;48.24;100093.34;4404221;32;33489;-69
2023/10/17 02:37:00;;;;;;;0.68;0.68;;;;;;;8.53;48.72;100098.84;4387051;32;33796;-69
2023/10/17 02:39:28;;;;;;;0.65;0.65;;;;;;;8.43;48.94;100101.22;4386088;32;34345;-69
2023/10/17 02:42:06;;;;;;;1.23;1.15;;;;;;;8.37;49.31;100102.41;4388875;32;33699;-69
2023/10/17 02:44:39;;;;;;;1.67;1.12;;;;;;;8.28;49.48;100096.75;4387736;32;32768;-69
2023/10/17 02:47:11;;;;;;;0.60;0.60;;;;;;;8.38;48.84;100103.31;4388763;32;33368;-69
2023/10/17 02:49:43;;;;;;;2.17;1.37;;;;;;;8.48;48.47;100095.63;4387095;32;34217;-69
2023/10/17 02:52:11;;;;;;;0.85;0.70;;;;;;;8.50;48.41;100099.03;4387462;32;34620;-69
2023/10/17 02:54:56;;;;;;;2.67;1.42;;;;;;;8.48;48.77;100103.62;4386078;32;33048;-70
2023/10/17 02:57:26;;;;;;;0.68;0.68;;;;;;;8.40;49.18;100093.41;4387271;32;33524;-69
2023/10/17 02:59:57;;;;;;;1.48;0.85;;;;;;;8.25;49.75;100100.50;4385799;32;33796;-69
2023/10/17 03:02:36;;;;;;;0.65;0.65;;;;;;;8.20;49.39;100109.72;4385370;32;34391;-69
2023/10/17 03:05:11;;;;;;;1.08;1.02;;;;;;;8.07;49.94;100102.44;4385934;32;33257;-70
2023/10/17 03:07:42;;;;;;;1.70;1.10;;;;;;;7.99;50.16;100101.16;4385718;32;33506;-69
2023/10/17 03:10:20;;;;;;;0.60;0.60;;;;;;;7.96;50.37;100110.22;4388956;32;34905;-69
2023/10/17 03:12:55;;;;;;;0.75;0.70;;;;;;;8.12;49.66;100105.69;4381939;32;33633;-69
2023/10/17 03:15:29;;;;;;;0.93;0.93;;;;;;;8.10;49.80;100099.56;4389565;32;34074;-69
2023/10/17 03:18:00;;;;;;;0.62;0.62;;;;;;;8.04;50.24;100101.75;4389305;32;33920;-69
2023/10/17 03:20:41;;;;;;;0.50;0.50;;;;;;;8.19;49.82;100103.53;4386817;32;35428;-69
2023/10/17 03:23:10;;;;;;;1.98;0.73;;;;;;;8.33;49.56;100113.34;4387838;32;33683;-68
2023/10/17 03:25:37;;;;;;;1.20;1.00;;;;;;;8.59;49.27;100109.16;4389015;32;32970;-68
2023/10/17 03:28:09;;;;;;;0.85;0.70;;;;;;;8.71;48.89;100110.22;4391981;32;33282;-68
2023/10/17 03:30:37;;;;;;;1.50;1.10;;;;;;;8.79;48.43;100115.94;4389512;32;34015;-69
2023/10/17 03:33:14;;;;;;;1.10;0.80;;;;;;;8.82;48.63;100105.06;4390449;32;33978;-69
2023/10/17 03:38:31;;;;;;;1.00;0.70;;;;;;;8.91;48.35;100114.31;4389093;32;33931;-69
2023/10/17 03:41:23;;;;;;;12.80;1.20;;;;;;;8.98;48.18;100113.84;4388367;32;35091;-68
2023/10/17 03:43:52;;;;;;;1.45;1.27;;;;;;;9.02;48.28;100110.03;4390947;32;33694;-69
2023/10/17 03:46:25;;;;;;;0.50;0.50;;;;;;;9.08;48.02;100109.66;4391280;32;34237;-68
2023/10/17 03:49:00;;;;;;;1.75;0.85;;;;;;;9.12;48.05;100114.78;4390141;32;33508;-71
2023/10/17 03:51:30;;;;;;;3.72;1.85;;;;;;;9.10;48.08;100114.91;4391993;32;34871;-71
2023/10/17 03:54:06;;;;;;;0.93;0.93;;;;;;;9.07;47.83;100107.06;4387904;32;36335;-72
2023/10/17 03:56:49;;;;;;;1.05;0.55;;;;;;;8.96;48.13;100117.59;4388224;32;33400;-67
2023/10/17 03:59:21;;;;;;;0.68;0.68;;;;;;;8.91;47.84;100115.19;4390315;32;34993;-67
2023/10/17 04:01:49;;;;;;;2.22;1.17;;;;;;;8.87;47.84;100111.00;4390437;32;35795;-67
2023/10/17 04:04:35;;;;;;;1.20;0.90;;;;;;;8.90;47.58;100107.28;4402912;32;34378;-67
2023/10/17 04:07:06;;;;;;;1.50;1.30;;;;;;;8.71;48.36;100110.22;4397324;32;34243;-68
2023/10/17 04:12:22;;;;;;;0.68;0.68;;;;;;;8.85;47.81;100099.53;4405260;32;33948;-68
2023/10/17 04:14:54;;;;;;;1.75;1.02;;;;;;;8.91;47.93;100093.81;4405325;32;33730;-68
2023/10/17 04:17:24;;;;;;;2.85;1.48;;;;;;;8.96;47.56;100094.41;4405905;32;34096;-67
2023/10/17 04:19:58;;;;;;;0.60;0.60;;;;;;;8.92;47.75;100094.69;4404275;32;34741;-67
2023/10/17 04:22:29;;;;;;;0.60;0.60;;;;;;;8.97;47.57;100092.59;4406095;32;33818;-67
2023/10/17 04:25:00;;;;;;;3.03;0.95;;;;;;;9.03;47.55;100102.88;4404374;32;33664;-68
2023/10/17 04:27:31;;;;;;;0.65;0.60;;;;;;;9.06;47.25;100100.88;4404712;32;33343;-68
2023/10/17 04:29:59;;;;;;;5.18;0.93;;;;;;;9.11;47.43;100095.25;4401784;32;33775;-68
2023/10/17 04:32:33;;;;;;;1.45;1.27;;;;;;;9.02;47.55;100099.38;4405887;32;34720;-68
2023/10/17 04:35:02;;;;;;;1.27;0.93;;;;;;;8.84;48.55;100100.50;4401028;32;33565;-68
2023/10/17 04:37:32;;;;;;;1.15;1.00;;;;;;;8.93;47.33;100104.44;4406157;32;33139;-68
2023/10/17 04:45:24;;;;;;;2.05;1.45;;;;;;;8.98;47.27;100104.97;4373397;32;34107;-68
2023/10/17 04:48:10;;;;;;;3.12;1.45;;;;;;;8.90;47.44;100105.47;4366548;32;34262;-68
2023/10/17 04:50:45;;;;;;;0.93;0.88;;;;;;;8.87;47.86;100102.97;4363378;32;33336;-68
2023/10/17 04:53:35;;;;;;;;;;;;;;;8.92;47.72;100114.22;4341824;32;33894;-70
2023/10/17 04:56:11;;;;;;;1.75;0.88;;;;;;;8.99;47.41;100112.91;4343493;32;34106;-68
2023/10/17 04:58:49;;;;;;;1.20;1.02;;;;;;;9.00;47.45;100117.28;4342383;32;33702;-70
2023/10/17 05:01:39;;;;;;;1.15;1.08;;;;;;;9.05;47.67;100109.84;4338855;32;33636;-70
2023/10/17 06:19:16;;;;;;;3.67;2.22;;;;;;;9.71;46.45;100169.78;4403898;32;33731;-69
2023/10/17 06:33:03;;;;;;;2.75;1.25;;;;;;;10.76;44.86;100173.56;4401434;32;33592;-69
2023/10/17 06:35:38;;;;;;;1.52;1.20;;;;;;;10.92;44.51;100175.09;4404234;32;34026;-69
2023/10/17 06:38:07;;;;;;;2.08;1.23;;;;;;;11.09;44.02;100178.41;4404602;32;33575;-69
2023/10/17 06:40:44;;;;;;;2.42;1.52;;;;;;;11.20;44.06;100181.16;4403304;32;34054;-69
2023/10/17 06:43:14;;;;;;;2.15;1.30;;;;;;;11.31;43.78;100181.28;4405836;32;35003;-69
2023/10/17 06:45:54;;;;;;;2.83;1.65;;;;;;;11.46;43.25;100178.47;4402130;32;35025;-69
2023/10/17 06:48:31;;;;;;;2.78;1.55;;;;;;;11.53;43.06;100175.25;4404046;32;33227;-69
2023/10/17 06:53:34;;;;;;;19.05;2.15;;;;;;;11.59;43.50;100180.19;4400013;32;33528;-69
2023/10/17 06:56:04;;;;;;;5.50;2.37;;;;;;;11.63;43.26;100175.44;4400718;32;35334;-69
2023/10/17 06:58:32;;;;;;;2.78;1.60;;;;;;;11.64;43.39;100187.88;4401788;32;33560;-69
2023/10/17 07:01:04;;;;;;;9.18;1.35;;;;;;;11.65;44.23;100185.09;4403634;32;34777;-69
2023/10/17 07:03:34;;;;;;;3.95;1.65;;;;;;;11.68;43.66;100186.69;4404080;32;34268;-69
2023/10/17 07:06:16;;;;;;;4.87;1.92;;;;;;;11.73;43.78;100172.97;4404819;32;33137;-69
2023/10/17 07:08:50;;;;;;;2.10;1.80;;;;;;;11.80;43.25;100175.06;4401465;32;33602;-69
2023/10/17 07:16:34;;;;;;;4.12;1.55;;;;;;;12.01;44.23;100179.87;4403789;32;35036;-69
2023/10/17 07:24:33;;;;;;;3.10;1.55;;;;;;;12.54;43.68;100172.28;4358542;32;34433;-69
2023/10/17 07:27:04;;;;;;;2.17;1.40;;;;;;;12.88;42.00;100181.31;4357556;32;33910;-69
2023/10/17 07:29:36;;;;;;;2.72;1.77;;;;;;;13.29;40.92;100179.94;4353644;32;33366;-69
2023/10/17 07:32:15;;;;;;;4.47;2.08;;;;;;;13.00;41.41;100169.63;4342695;32;34589;-69
2023/10/17 07:34:46;;;;;;;2.20;1.65;;;;;;;13.97;39.66;100180.75;4339120;32;33775;-68
2023/10/17 07:37:22;;;;;;;6.10;1.75;;;;;;;13.81;38.68;100180.28;4346577;32;34543;-69
2023/10/17 07:42:42;;;;;;;5.45;2.45;;;;;;;14.13;39.25;100177.62;4342026;32;33717;-69
2023/10/17 07:45:14;;;;;;;4.60;2.40;;;;;;;14.00;41.56;100175.09;4343430;32;34137;-68
2023/10/17 07:47:51;;;;;;;3.90;2.22;;;;;;;14.17;38.76;100171.84;4347625;32;33915;-68
2023/10/17 07:50:20;;;;;;;3.33;1.87;;;;;;;14.23;39.16;100175.03;4344924;33;33730;-68
2023/10/17 07:52:54;;;;;;;3.53;1.80;;;;;;;14.60;37.88;100179.06;4344274;32;33624;-68
2023/10/17 07:55:38;;;;;;;2.87;2.15;;;;;;;14.40;38.67;100172.63;4347039;32;33962;-71
2023/10/17 07:58:09;;;;;;;3.35;1.95;;;;;;;14.76;37.95;100167.81;4343851;32;33589;-70
2023/10/17 08:00:37;;;;;;;3.72;1.73;;;;;;;14.52;38.22;100165.41;4352546;32;34399;-69
2023/10/17 08:03:19;;;;;;;8.57;2.37;;;;;;;14.60;37.93;100170.97;4373906;32;33968;-70
2023/10/17 08:08:35;;;;;;;3.80;2.08;;;;;;;14.36;39.52;100170.34;4371459;32;34322;-70
2023/10/17 08:11:08;;;;;;;5.72;2.20;;;;;;;14.54;39.34;100167.94;4365955;32;33447;-71
2023/10/17 08:13:37;;;;;;;3.90;1.80;;;;;;;14.48;39.48;100174.69;4370224;32;33514;-69
2023/10/17 08:16:14;;;;;;;5.25;2.72;;;;;;;14.38;39.56;100184.50;4368594;32;34095;-70
2023/10/17 08:18:43;;;;;;;3.97;2.42;;;;;;;14.24;40.16;100177.59;4369733;32;33779;-70
2023/10/17 08:24:00;;;;;;;4.75;3.08;;;;;;;14.22;39.38;100176.84;4368093;32;33899;-69
2023/10/17 08:26:40;;;;;;;8.00;2.30;;;;;;;14.02;40.51;100180.34;4369771;32;35361;-70
2023/10/17 08:29:10;;;;;;;5.70;2.17;;;;;;;14.32;40.02;100175.13;4369216;32;33064;-71
2023/10/17 08:31:44;;;;;;;3.55;2.30;;;;;;;14.22;40.08;100176.84;4384470;32;32250;-71
2023/10/17 08:34:14;;;;;;;6.10;2.60;;;;;;;14.31;39.67;100176.09;4407186;32;33974;-71
2023/10/17 08:42:11;;;;;;;3.28;2.10;;;;;;;14.39;39.89;100165.53;4401131;32;34502;-71
2023/10/17 08:44:42;;;;;;;6.35;2.45;;;;;;;14.85;39.18;100164.34;4403965;32;33859;-71
2023/10/17 08:47:11;;;;;;;2.70;1.77;;;;;;;14.72;38.88;100168.22;4406811;32;32913;-71
2023/10/17 08:49:39;;;;;;;7.00;1.87;;;;;;;14.58;37.63;100166.72;4374595;32;34556;-71
2023/10/17 08:52:19;;;;;;;4.22;1.37;;;;;;;14.61;37.39;100167.31;4403477;32;33085;-72
2023/10/17 08:54:47;;;;;;;5.22;1.83;;;;;;;14.65;36.03;100157.97;4405036;32;32837;-70
2023/10/17 08:57:15;;;;;;;2.22;1.45;;;;;;;14.61;36.53;100161.94;4399278;32;34245;-70
2023/10/17 09:04:52;;;;;;;2.78;1.70;;;;;;;14.06;38.25;100150.38;4406060;32;33806;-70
2023/10/17 09:07:41;;;;;;;5.28;1.95;;;;;;;14.16;38.15;100155.84;4399498;32;35026;-70
2023/10/17 09:16:20;;;;;;;2.60;1.60;;;;;;;14.10;37.58;100162.59;4331707;32;33784;-71
2023/10/17 09:18:50;;;;;;;3.58;1.55;;;;;;;14.45;37.44;100162.34;4329371;33;33775;-69
2023/10/17 09:21:20;;;;;;;2.50;1.50;;;;;;;13.64;38.14;100154.72;4334478;32;34704;-69
2023/10/17 09:23:50;;;;;;;2.42;1.42;;;;;;;14.17;37.12;100160.25;4340286;32;33351;-69
2023/10/17 09:26:22;;;;;;;3.95;1.87;;;;;;;14.18;37.68;100149.34;4327586;32;34599;-69
2023/10/17 09:29:00;;;;;;;2.83;1.23;;;;;;;14.50;37.61;100153.84;4339823;32;34332;-69
2023/10/17 09:31:27;;;;;;;2.95;1.45;;;;;;;14.30;36.59;100154.69;4335230;32;33456;-69
2023/10/17 09:34:04;;;;;;;2.70;1.37;;;;;;;13.95;37.69;100151.25;4326682;32;32726;-70
2023/10/17 09:36:33;;;;;;;3.85;1.75;;;;;;;14.28;38.78;100156.66;4329055;32;33812;-70
2023/10/17 09:39:04;;;;;;;1.95;1.20;;;;;;;13.89;38.42;100158.97;4315501;33;34071;-69
2023/10/17 09:41:32;;;;;;;4.75;2.47;;;;;;;14.15;37.73;100154.97;4327074;33;33881;-70
2023/10/17 09:44:00;;;;;;;2.90;1.85;;;;;;;13.75;38.82;100154.72;4325323;33;34176;-72
2023/10/17 09:46:29;;;;;;;3.83;1.98;;;;;;;13.91;40.02;100151.63;4327237;33;34573;-71
2023/10/17 09:49:00;;;;;;;5.37;1.95;;;;;;;14.61;37.09;100140.38;4319437;32;34990;-70
2023/10/17 09:51:35;;;;;;;8.65;2.42;;;;;;;14.84;36.69;100135.69;4354681;32;33599;-69
2023/10/17 09:54:04;;;;;;;5.40;2.17;;;;;;;14.87;36.48;100143.53;4368298;32;33191;-69
2023/10/17 09:56:37;;;;;;;3.20;2.15;;;;;;;14.86;37.61;100130.16;4393448;32;33537;-70
2023/10/17 09:59:16;;;;;;;2.72;1.77;;;;;;;15.25;36.38;100128.53;4388253;32;34916;-70
2023/10/17 10:01:46;;;;;;;6.93;2.80;;;;;;;15.39;35.46;100132.72;4354436;32;34729;-70
2023/10/17 10:04:17;;;;;;;4.03;2.20;;;;;;;15.51;35.77;100126.22;4357991;32;31468;-70
2023/10/17 10:06:45;;;;;;;3.33;1.95;;;;;;;15.48;35.30;100118.41;4371298;32;35108;-70
2023/10/17 10:09:15;;;;;;;3.45;1.90;;;;;;;15.28;35.55;100120.19;4371454;32;33462;-70
2023/10/17 10:11:53;;;;;;;2.17;1.33;;;;;;;15.52;35.03;100110.88;4374098;32;33454;-70
2023/10/17 10:14:27;;;;;;;2.28;1.67;;;;;;;15.69;34.41;100112.09;4372443;32;33405;-71
2023/10/17 10:16:57;;;;;;;3.00;1.85;;;;;;;15.77;34.67;100104.16;4372465;32;34849;-70
2023/10/17 10:19:40;;;;;;;4.40;2.17;;;;;;;15.59;35.00;100112.88;4372855;32;32677;-70
2023/10/17 10:22:13;;;;;;;7.57;3.08;;;;;;;15.78;34.95;100103.16;4372165;32;33630;-70
2023/10/17 10:24:43;;;;;;;6.18;2.22;;;;;;;15.22;35.35;100104.53;4372596;32;32740;-70
2023/10/17 10:27:14;;;;;;;3.37;1.73;;;;;;;15.76;34.59;100094.34;4373545;32;33607;-70
2023/10/17 10:29:42;;;;;;;2.30;1.75;;;;;;;15.78;35.73;100095.91;4373621;32;33705;-70
2023/10/17 10:32:33;;;;;;;2.97;1.92;;;;;;;15.35;34.94;100102.47;4380715;32;33596;-70
2023/10/17 10:35:03;;;;;;;4.62;1.95;;;;;;;15.93;33.42;100090.97;4405952;32;33147;-70
2023/10/17 10:37:32;;;;;;;2.53;1.27;;;;;;;15.50;33.82;100089.44;4406030;32;34962;-70
2023/10/17 10:40:12;;;;;;;5.32;2.55;;;;;;;16.11;33.76;100084.87;4405918;32;34993;-70
2023/10/17 10:42:41;;;;;;;3.80;1.98;;;;;;;16.25;33.27;100085.31;4409765;32;33762;-70
2023/10/17 10:45:42;;;;;;;4.05;1.80;;;;;;;16.74;33.29;100082.53;4399395;32;33507;-70
2023/10/17 10:48:17;;;;;;;5.47;2.40;;;;;;;16.81;31.94;100075.56;4404524;32;33472;-70
2023/10/17 10:50:47;;;;;;;3.00;2.00;;;;;;;16.71;31.76;100062.03;4404675;32;33863;-70
2023/10/17 10:53:19;;;;;;;6.32;2.47;;;;;;;16.72;32.00;100066.44;4405051;32;33523;-70
2023/10/17 10:55:55;;;;;;;3.65;1.60;;;;;;;16.76;31.48;100059.81;4401157;32;33673;-70
2023/10/17 10:58:24;;;;;;;2.87;1.12;;;;;;;15.96;33.06;100057.47;4404604;32;33386;-70
2023/10/17 11:00:56;;;;;;;3.85;1.75;;;;;;;16.03;34.07;100056.72;4405130;32;33768;-70
2023/10/17 11:03:24;;;;;;;3.40;1.80;;;;;;;15.93;33.51;100055.88;4390110;32;34897;-70
2023/10/17 11:06:03;;;;;;;6.45;2.45;;;;;;;16.74;31.94;100056.34;4387421;32;33446;-70
2023/10/17 11:08:45;;;;;;;7.53;2.45;;;;;;;16.85;32.31;100052.62;4392640;32;34902;-69
2023/10/17 11:11:16;;;;;;;4.40;2.37;;;;;;;16.54;32.22;100038.50;4390842;32;34064;-70
2023/10/17 11:13:52;;;;;;;7.28;3.25;;;;;;;15.94;32.57;100049.47;4401443;32;34277;-69
2023/10/17 11:16:26;;;;;;;;;;;;;;;16.47;32.61;100043.63;4386302;32;33504;-69
2023/10/17 11:18:54;;;;;;;3.28;2.00;;;;;;;16.69;31.63;100038.84;4376349;32;34902;-69
2023/10/17 11:21:23;;;;;;;6.62;2.55;;;;;;;16.95;32.26;100037.25;4382898;32;34320;-69
2023/10/17 11:24:04;;;;;;;3.60;1.42;;;;;;;17.21;31.49;100036.56;4387554;32;33347;-69
2023/10/17 11:26:34;;;;;;;1.55;1.12;;;;;;;16.52;30.90;100035.91;4387397;32;34754;-69
2023/10/17 11:29:05;;;;;;;2.65;1.12;;;;;;;16.84;31.40;100029.31;4388959;32;33949;-70
2023/10/17 11:31:33;;;;;;;4.18;2.17;;;;;;;17.01;31.44;100033.06;4387410;32;33911;-70
2023/10/17 11:34:12;;;;;;;6.30;2.78;;;;;;;16.49;33.04;100035.34;4375280;32;32955;-71
2023/10/17 11:36:48;;;;;;;6.00;2.85;;;;;;;16.87;32.26;100033.56;4390825;32;33146;-72
2023/10/17 11:39:15;;;;;;;3.58;2.15;;;;;;;16.39;33.83;100024.56;4387875;32;32475;-71
2023/10/17 11:41:53;;;;;;;3.17;1.87;;;;;;;16.98;31.52;100018.03;4386380;32;32359;-69
2023/10/17 11:44:23;;;;;;;14.45;2.90;;;;;;;17.09;30.90;100006.16;4379885;32;33880;-70
2023/10/17 11:47:07;;;;;;;6.15;2.30;;;;;;;16.84;31.34;100009.53;4378233;32;33263;-70
2023/10/17 11:49:39;;;;;;;5.93;2.45;;;;;;;16.28;32.45;100011.25;4396370;32;33728;-71
2023/10/17 11:52:13;;;;;;;4.10;2.45;;;;;;;16.33;31.68;100013.50;4399392;32;35193;-71
2023/10/17 11:54:55;;;;;;;4.57;2.43;;;;;;;16.80;31.34;100017.09;4407400;32;34652;-71
2023/10/17 11:57:24;;;;;;;3.50;1.70;;;;;;;16.67;31.30;100022.81;4390315;32;34125;-72
2023/10/17 12:02:47;;;;;;;4.75;1.20;;;;;;;16.28;31.95;100014.78;4398992;32;35018;-72
2023/10/17 12:05:20;;;;;;;7.72;2.62;;;;;;;16.57;31.76;100015.72;4392352;32;34103;-71
2023/10/17 12:07:53;;;;;;;7.35;2.08;;;;;;;16.71;31.33;100005.28;4391982;32;33333;-71
2023/10/17 12:10:24;;;;;;;4.85;1.92;;;;;;;16.60;31.49;100002.78;4396713;32;34818;-72
2023/10/17 12:12:58;;;;;;;3.92;2.08;;;;;;;16.40;31.78;99998.41;4354229;32;34892;-73
2023/10/17 12:15:26;;;;;;;7.20;3.17;;;;;;;16.67;32.03;99997.62;4355770;32;33765;-72
2023/10/17 12:17:54;;;;;;;8.18;2.25;;;;;;;16.41;31.73;99995.56;4348584;32;33103;-69
2023/10/17 12:20:25;;;;;;;2.95;1.90;;;;;;;16.61;31.19;99990.12;4343230;32;34648;-70
2023/10/17 12:22:55;;;;;;;4.53;1.77;;;;;;;16.82;31.24;99988.09;4339477;32;32969;-71
2023/10/17 12:25:23;;;;;;;5.87;2.87;;;;;;;15.80;32.13;99991.38;4346209;32;34761;-71
2023/10/17 12:27:56;;;;;;;3.85;1.75;;;;;;;16.49;32.07;99992.97;4343292;32;33528;-72
2023/10/17 12:30:28;;;;;;;3.33;1.77;;;;;;;16.79;31.19;99982.97;4342851;32;35264;-71
2023/10/17 12:32:56;;;;;;;3.05;1.65;;;;;;;16.61;31.74;99966.62;4339200;32;35171;-71
2023/10/17 12:35:27;;;;;;;4.78;2.28;;;;;;;16.25;32.51;99981.81;4338698;32;34139;-70
2023/10/17 12:37:59;;;;;;;4.35;2.53;;;;;;;16.50;31.70;99972.22;4340704;33;34533;-71
2023/10/17 12:40:30;;;;;;;5.60;2.12;;;;;;;16.33;32.45;99979.22;4339572;32;33750;-69
2023/10/17 12:42:58;;;;;;;5.60;2.20;;;;;;;16.57;32.16;99973.34;4344574;32;34866;-69
2023/10/17 12:45:26;;;;;;;4.43;1.98;;;;;;;16.58;31.53;99963.37;4390641;32;33785;-70
2023/10/17 12:47:54;;;;;;;10.18;2.90;;;;;;;16.79;32.11;99961.34;4387936;32;33132;-69
2023/10/17 12:50:23;;;;;;;5.28;2.15;;;;;;;16.73;32.43;99951.09;4388364;32;34508;-69
2023/10/17 12:52:51;;;;;;;3.72;2.28;;;;;;;16.83;31.91;99964.59;4386175;32;34139;-70
2023/10/17 12:55:21;;;;;;;6.10;2.80;;;;;;;16.68;30.86;99958.78;4389285;32;33436;-70
2023/10/17 12:57:51;;;;;;;6.12;2.15;;;;;;;16.66;31.15;99955.37;4390721;32;33428;-68
2023/10/17 13:00:25;;;;;;;2.80;1.15;;;;;;;16.54;30.99;99952.88;4391769;32;33570;-68
2023/10/17 13:02:53;;;;;;;4.35;2.03;;;;;;;16.61;31.22;99952.28;4398639;32;33884;-69
2023/10/17 13:05:22;;;;;;;2.72;1.55;;;;;;;16.51;31.83;99955.03;4399573;32;34009;-68
2023/10/17 13:07:49;;;;;;;4.95;2.35;;;;;;;16.21;31.91;99962.37;4404256;32;34771;-68
2023/10/17 13:10:19;;;;;;;3.55;1.77;;;;;;;15.80;33.06;99952.75;4410520;32;33607;-68
2023/10/17 13:12:47;;;;;;;3.70;2.35;;;;;;;16.32;31.88;99945.13;4404024;32;34039;-68
2023/10/17 13:15:17;;;;;;;7.18;2.55;;;;;;;16.61;31.34;99944.19;4406980;32;33852;-68
2023/10/17 13:17:46;;;;;;;3.60;2.08;;;;;;;16.34;31.06;99948.53;4407621;32;33467;-68
2023/10/17 13:20:21;;;;;;;6.22;2.37;;;;;;;16.58;31.20;99949.88;4405352;32;34384;-69
2023/10/17 13:23:07;;;;;;;4.53;2.30;;;;;;;16.64;30.46;99947.44;4391206;32;34812;-69
2023/10/17 13:25:36;;;;;;;6.25;2.28;;;;;;;16.17;31.77;99930.38;4401515;32;34380;-68
2023/10/17 13:28:04;;;;;;;3.67;2.05;;;;;;;16.10;31.86;99934.66;4404263;32;33260;-67
2023/10/17 13:30:32;;;;;;;5.15;1.90;;;;;;;16.48;31.34;99939.09;4399896;32;33914;-68
2023/10/17 13:33:00;;;;;;;4.82;2.42;;;;;;;16.57;31.43;99934.66;4403293;32;33715;-68
2023/10/17 13:35:28;;;;;;;3.55;2.20;;;;;;;16.06;31.82;99937.66;4402826;32;34617;-68
2023/10/17 13:37:58;;;;;;;4.43;2.70;;;;;;;16.06;31.64;99940.34;4404588;32;34318;-69
2023/10/17 13:40:26;;;;;;;5.25;2.62;;;;;;;16.26;31.57;99943.84;4403181;32;33976;-69
2023/10/17 13:42:53;;;;;;;4.78;1.92;;;;;;;16.23;31.17;99949.53;4403066;32;33726;-69
2023/10/17 13:45:22;;;;;;;3.72;2.35;;;;;;;16.37;30.90;99942.84;4403921;32;35087;-69
2023/10/17 13:47:52;;;;;;;7.03;2.35;;;;;;;16.39;31.45;99938.13;4400918;32;33318;-69
2023/10/17 13:50:20;;;;;;;5.62;2.53;;;;;;;16.16;31.43;99943.03;4403914;32;33991;-70
2023/10/17 13:52:49;;;;;;;3.55;2.05;;;;;;;16.18;31.74;99945.56;4399537;32;33782;-70
2023/10/17 13:55:25;;;;;;;5.18;2.70;;;;;;;16.05;32.18;99943.19;4401024;32;34081;-70
2023/10/17 13:58:04;;;;;;;4.40;1.73;;;;;;;16.27;32.08;99939.31;4404293;32;33021;-69
2023/10/17 14:00:45;;;;;;;6.28;2.20;;;;;;;16.00;32.14;99932.84;4399240;32;34019;-70
2023/10/17 14:03:13;;;;;;;4.22;2.10;;;;;;;16.27;32.46;99926.66;4400189;32;33524;-70
2023/10/17 14:05:44;;;;;;;6.90;3.30;;;;;;;16.41;32.22;99933.44;4399847;32;33852;-69
2023/10/17 14:08:13;;;;;;;3.25;1.92;;;;;;;16.35;32.62;99931.31;4402327;32;33160;-70
2023/10/17 14:10:46;;;;;;;2.40;1.37;;;;;;;16.35;32.58;99934.03;4400609;32;33411;-70
2023/10/17 14:13:17;;;;;;;5.78;2.05;;;;;;;16.27;32.25;99933.91;4396976;32;33690;-70